Time;durP1;ratioP1;P1;durP2;ratioP2;P2;SDS_P1;SDS_P2;PMS_P1;PMS_P2;Temp;Humidity;BMP_temperature;BMP_pressure;BME280_temperature;BME280_humidity;BME280_pressure;Samples;Min_cycle;Max_cycle;Signal;HPM_P1;HPM_P2
2022/01/30 00:00:52;;;;;;;8.68;3.20;;;;;;;2.53;73.69;100413.75;4486299;31;20481;-71
2022/01/30 00:03:19;;;;;;;9.52;3.87;;;;;;;2.56;73.87;100416.41;4486251;31;20163;-71
2022/01/30 00:05:47;;;;;;;12.48;3.50;;;;;;;2.59;73.25;100411.28;4486186;31;20397;-71
2022/01/30 00:08:14;;;;;;;10.77;4.40;;;;;;;2.64;73.55;100403.56;4486358;31;20130;-71
2022/01/30 00:10:43;;;;;;;10.25;3.85;;;;;;;2.55;74.09;100404.25;4486170;31;20084;-71
2022/01/30 00:13:14;;;;;;;11.90;3.85;;;;;;;2.56;74.18;100407.75;4486081;31;20093;-71
2022/01/30 00:15:46;;;;;;;7.50;3.37;;;;;;;2.59;74.44;100415.59;4486179;31;20171;-71
2022/01/30 00:20:59;;;;;;;12.13;3.53;;;;;;;2.43;77.70;100392.72;4486141;31;20167;-72
2022/01/30 00:23:29;;;;;;;10.57;4.07;;;;;;;2.46;77.75;100385.84;4486117;31;20432;-71
2022/01/30 00:25:58;;;;;;;9.88;3.62;;;;;;;2.35;78.68;100375.22;4486132;31;20092;-71
2022/01/30 00:28:26;;;;;;;12.20;3.95;;;;;;;2.41;78.12;100371.03;4486002;31;20468;-71
2022/01/30 00:30:55;;;;;;;13.60;4.15;;;;;;;2.36;78.40;100361.38;4486074;31;20084;-71
2022/01/30 00:33:22;;;;;;;12.70;3.90;;;;;;;2.25;79.08;100356.81;4485920;31;20088;-71
2022/01/30 00:35:50;;;;;;;10.27;3.62;;;;;;;2.28;79.51;100341.28;4485842;31;20461;-71
2022/01/30 00:38:22;;;;;;;6.47;3.92;;;;;;;2.31;79.08;100333.53;4485881;31;20506;-71
2022/01/30 00:40:51;;;;;;;11.70;4.25;;;;;;;2.35;78.94;100336.22;4486111;31;20109;-71
2022/01/30 00:43:20;;;;;;;9.25;2.97;;;;;;;2.29;78.98;100319.63;4485782;31;20119;-71
2022/01/30 00:45:48;;;;;;;15.45;4.00;;;;;;;2.22;78.43;100318.63;4485918;31;20153;-71
2022/01/30 00:48:17;;;;;;;10.32;3.35;;;;;;;2.12;78.96;100314.06;4485940;31;20096;-71
2022/01/30 00:50:44;;;;;;;9.27;3.35;;;;;;;2.08;79.17;100317.44;4485923;31;20084;-71
2022/01/30 00:53:12;;;;;;;6.68;3.17;;;;;;;1.99;79.05;100312.94;4486061;31;20099;-72
2022/01/30 00:55:39;;;;;;;11.18;3.53;;;;;;;1.97;79.31;100313.75;4485742;31;20224;-71
2022/01/30 00:58:06;;;;;;;13.40;3.87;;;;;;;1.91;79.34;100320.59;4486107;31;20482;-71
2022/01/30 01:00:34;;;;;;;11.98;3.55;;;;;;;1.99;78.46;100301.69;4486064;31;20513;-71
2022/01/30 01:03:03;;;;;;;6.32;2.75;;;;;;;1.89;78.84;100295.41;4485780;31;20104;-71
2022/01/30 01:05:32;;;;;;;9.88;3.50;;;;;;;1.98;78.50;100294.69;4471346;31;20116;-71
2022/01/30 01:08:08;;;;;;;8.15;3.90;;;;;;;1.92;79.05;100296.34;4485938;31;20439;-71
2022/01/30 01:10:45;;;;;;;17.92;4.00;;;;;;;2.08;78.19;100313.12;4486051;31;20110;-71
2022/01/30 01:23:52;;;;;;;7.57;3.25;;;;;;;1.99;77.50;100271.37;4485708;31;20128;-71
2022/01/30 01:26:22;;;;;;;9.60;3.28;;;;;;;1.94;77.77;100261.72;4485987;31;20149;-71
2022/01/30 01:28:50;;;;;;;12.45;3.78;;;;;;;1.96;77.48;100266.09;4485843;31;20096;-71
2022/01/30 01:31:18;;;;;;;14.60;3.17;;;;;;;2.03;77.00;100267.09;4485675;31;20133;-71
2022/01/30 01:36:30;;;;;;;10.40;3.03;;;;;;;1.97;77.34;100246.19;4485616;31;20396;-71
2022/01/30 01:38:58;;;;;;;5.45;3.30;;;;;;;2.07;76.82;100242.94;4485531;31;20494;-71
2022/01/30 01:41:28;;;;;;;15.43;3.37;;;;;;;1.98;77.51;100227.13;4485619;31;20076;-71
2022/01/30 01:43:56;;;;;;;14.50;3.47;;;;;;;1.93;77.49;100229.66;4485820;31;20084;-71
2022/01/30 01:46:29;;;;;;;6.68;3.40;;;;;;;1.86;77.64;100214.78;4485354;31;20468;-71
2022/01/30 01:48:56;;;;;;;6.28;2.65;;;;;;;1.86;77.41;100218.25;4485493;31;20149;-71
2022/01/30 01:51:30;;;;;;;9.20;3.10;;;;;;;1.93;77.21;100219.25;4485503;31;20091;-71
2022/01/30 01:53:59;;;;;;;10.50;3.72;;;;;;;1.90;77.38;100212.28;4484752;31;20103;-71
2022/01/30 01:56:28;;;;;;;9.30;3.22;;;;;;;1.92;77.10;100205.41;4485361;31;20119;-71
2022/01/30 01:59:00;;;;;;;11.20;3.35;;;;;;;1.81;77.03;100204.31;4485567;31;20125;-71
2022/01/30 02:01:29;;;;;;;10.52;3.60;;;;;;;1.65;78.07;100184.91;4485485;31;20405;-71
2022/01/30 02:03:56;;;;;;;9.07;3.53;;;;;;;1.60;77.92;100188.28;4485431;31;20108;-72
2022/01/30 02:06:25;;;;;;;12.45;3.85;;;;;;;1.49;79.10;100184.59;4485225;31;20440;-71
2022/01/30 02:09:05;;;;;;;9.10;3.60;;;;;;;1.46;79.30;100181.91;4485447;31;20557;-72
2022/01/30 02:11:40;;;;;;;13.80;3.78;;;;;;;1.46;79.48;100174.12;4485296;31;20500;-71
2022/01/30 02:27:47;;;;;;;12.85;3.65;;;;;;;0.83;82.43;100131.22;4485162;31;20119;-71
2022/01/30 02:30:19;;;;;;;11.52;4.00;;;;;;;0.80;82.33;100124.22;4485000;31;20115;-71
2022/01/30 02:32:47;;;;;;;12.07;4.20;;;;;;;0.90;81.97;100125.31;4485204;31;20088;-71
2022/01/30 02:35:15;;;;;;;11.98;3.28;;;;;;;1.07;80.78;100133.50;4484926;31;20091;-71
2022/01/30 02:37:43;;;;;;;14.32;3.92;;;;;;;0.73;82.09;100132.69;4484848;31;20092;-71
2022/01/30 02:40:12;;;;;;;11.77;4.03;;;;;;;0.73;81.55;100126.66;4484952;31;20447;-71
2022/01/30 02:42:47;;;;;;;4.55;3.42;;;;;;;0.66;81.54;100117.84;4485107;31;20427;-71
2022/01/30 02:45:16;;;;;;;10.57;3.80;;;;;;;0.68;81.53;100111.00;4484799;31;20408;-71
2022/01/30 02:51:08;;;;;;;12.03;3.27;;;;;;;0.66;82.77;100094.50;4474772;31;20155;-71
2022/01/30 02:53:41;;;;;;;12.02;4.32;;;;;;;0.73;82.47;100083.44;4484859;31;20163;-71
2022/01/30 02:56:08;;;;;;;10.57;3.90;;;;;;;0.89;81.81;100077.75;4484791;31;20106;-71
2022/01/30 02:58:35;;;;;;;8.60;3.47;;;;;;;0.93;81.85;100079.56;4484474;31;20092;-71
2022/01/30 03:01:03;;;;;;;5.93;3.15;;;;;;;0.94;81.58;100070.06;4484720;31;20088;-71
2022/01/30 03:03:31;;;;;;;9.65;3.17;;;;;;;0.85;82.52;100075.94;4484638;31;20158;-71
2022/01/30 03:05:58;;;;;;;7.90;3.80;;;;;;;1.02;81.72;100073.69;4484937;31;20160;-71
2022/01/30 03:08:25;;;;;;;11.43;3.95;;;;;;;1.01;81.41;100074.53;4486887;31;20096;-71
2022/01/30 03:10:52;;;;;;;7.50;3.60;;;;;;;0.74;82.19;100060.97;4486588;31;20133;-71
2022/01/30 03:13:20;;;;;;;8.60;4.25;;;;;;;0.60;83.46;100047.69;4486756;31;20080;-71
2022/01/30 03:15:47;;;;;;;9.38;4.40;;;;;;;0.87;81.88;100044.84;4486656;31;20156;-71
2022/01/30 03:18:14;;;;;;;12.70;4.12;;;;;;;0.52;83.99;100057.00;4486666;31;20100;-71
2022/01/30 03:20:42;;;;;;;14.57;4.40;;;;;;;0.38;84.53;100067.91;4486488;31;20467;-71
2022/01/30 03:23:09;;;;;;;9.85;3.67;;;;;;;0.23;84.93;100068.44;4486686;31;20088;-71
2022/01/30 03:25:36;;;;;;;8.60;4.22;;;;;;;0.02;86.93;100054.06;4486452;31;20537;-71
2022/01/30 03:28:05;;;;;;;6.95;3.65;;;;;;;-0.09;86.63;100064.16;4486400;31;20118;-71
2022/01/30 03:30:33;;;;;;;12.27;4.32;;;;;;;0.01;85.95;100048.03;4486724;31;20107;-71
2022/01/30 03:33:00;;;;;;;10.02;3.83;;;;;;;0.09;85.66;100041.31;4486588;31;20079;-71
2022/01/30 03:35:28;;;;;;;8.23;3.72;;;;;;;0.12;85.31;100049.16;4486480;31;20203;-71
2022/01/30 03:37:55;;;;;;;6.15;3.20;;;;;;;-0.02;85.76;100045.34;4486572;31;20989;-71
2022/01/30 03:40:22;;;;;;;6.82;3.67;;;;;;;-0.10;86.12;100040.00;4486564;31;20523;-71
2022/01/30 03:42:50;;;;;;;6.60;3.72;;;;;;;0.01;85.35;100034.22;4486508;31;20490;-71
2022/01/30 03:45:18;;;;;;;9.85;4.10;;;;;;;-0.19;86.17;100026.78;4486588;31;20439;-71
2022/01/30 03:47:46;;;;;;;10.55;3.78;;;;;;;-0.11;85.60;100017.50;4486582;31;20160;-71
2022/01/30 03:50:15;;;;;;;10.10;4.15;;;;;;;-0.08;85.64;100004.62;4486514;31;20511;-71
2022/01/30 03:52:42;;;;;;;10.43;3.62;;;;;;;0.01;85.24;100008.31;4486549;31;20786;-71
2022/01/30 03:55:09;;;;;;;8.20;3.12;;;;;;;0.05;84.82;100029.12;4486431;31;20125;-71
2022/01/30 03:57:37;;;;;;;14.07;3.70;;;;;;;-0.12;85.75;100031.28;4486373;31;20112;-71
2022/01/30 04:00:06;;;;;;;8.73;3.62;;;;;;;-0.34;87.21;100029.88;4486253;31;20508;-71
2022/01/30 04:02:45;;;;;;;10.10;3.80;;;;;;;-0.23;86.25;100014.63;4486310;31;20155;-71
2022/01/30 04:05:13;;;;;;;7.45;2.70;;;;;;;-0.26;88.58;100004.16;4486524;31;20122;-71
2022/01/30 04:07:44;;;;;;;5.55;2.70;;;;;;;0.20;91.89;100001.00;4486453;31;20093;-71
2022/01/30 04:10:13;;;;;;;3.35;1.85;;;;;;;0.92;94.00;100002.59;4486443;31;20524;-71
2022/01/30 04:12:41;;;;;;;5.20;2.42;;;;;;;1.76;93.32;100003.31;4486381;31;20468;-71
2022/01/30 04:15:09;;;;;;;3.37;2.28;;;;;;;2.35;90.79;99993.03;4486298;31;20096;-71
2022/01/30 04:17:38;;;;;;;2.53;2.08;;;;;;;2.59;89.11;99992.50;4485958;31;20452;-71
2022/01/30 04:20:06;;;;;;;5.35;2.12;;;;;;;2.76;88.30;99979.75;4486098;31;20095;-71
2022/01/30 04:22:34;;;;;;;6.32;2.12;;;;;;;3.06;86.66;99980.97;4486307;31;20628;-71
2022/01/30 04:25:02;;;;;;;3.92;2.00;;;;;;;3.31;85.68;99992.53;4486043;31;20121;-71
2022/01/30 04:27:30;;;;;;;2.30;1.80;;;;;;;3.61;84.66;99980.69;4486230;31;20475;-71
2022/01/30 04:29:58;;;;;;;3.80;1.87;;;;;;;3.72;83.89;99984.28;4486052;31;20440;-71
2022/01/30 04:32:29;;;;;;;2.08;1.85;;;;;;;3.80;83.90;99986.09;4486200;31;20164;-71
2022/01/30 04:34:59;;;;;;;2.62;1.50;;;;;;;3.91;83.79;99982.69;4485867;31;20087;-71
2022/01/30 04:37:49;;;;;;;1.85;1.20;;;;;;;3.92;83.41;99992.25;4486104;31;20478;-71
2022/01/30 04:41:08;;;;;;;1.50;1.37;;;;;;;3.97;83.69;99975.81;4486233;31;20164;-71
2022/01/30 04:57:13;;;;;;;2.12;1.73;;;;;;;4.24;82.29;99980.38;4486087;31;20096;-71
2022/01/30 05:06:02;;;;;;;2.72;1.95;;;;;;;4.17;82.90;99977.69;4485830;31;20084;-71
2022/01/30 05:07:56;;;;;;;2.83;1.87;;;;;;;3.95;83.83;99976.66;4475370;31;20423;-71
2022/01/30 05:10:24;;;;;;;2.30;1.90;;;;;;;4.07;83.54;99984.59;4486010;31;20137;-71
2022/01/30 05:12:55;;;;;;;2.85;2.00;;;;;;;3.96;83.94;99968.84;4486082;31;20103;-71
2022/01/30 05:15:23;;;;;;;2.20;1.98;;;;;;;3.88;84.33;99980.06;4485914;31;20114;-71
2022/01/30 05:17:51;;;;;;;2.58;1.77;;;;;;;3.84;84.42;99976.56;4485814;31;20100;-71
2022/01/30 05:20:18;;;;;;;2.97;1.85;;;;;;;3.80;84.58;99980.88;4485771;31;20096;-71
2022/01/30 05:22:46;;;;;;;2.85;2.03;;;;;;;3.91;84.10;99975.75;4485827;31;20191;-71
2022/01/30 05:25:14;;;;;;;4.95;2.17;;;;;;;3.78;85.17;99972.19;4485967;31;20552;-71
2022/01/30 05:27:44;;;;;;;2.37;1.80;;;;;;;3.93;84.93;99975.78;4485624;31;20096;-71
2022/01/30 05:30:12;;;;;;;2.67;1.77;;;;;;;3.90;85.39;99963.59;4485088;31;20426;-71
2022/01/30 05:32:40;;;;;;;3.15;1.58;;;;;;;4.07;84.63;99955.91;4485781;31;20112;-71
2022/01/30 05:35:08;;;;;;;3.22;1.55;;;;;;;4.00;85.23;99951.50;4485678;31;20092;-71
2022/01/30 05:37:42;;;;;;;3.22;1.35;;;;;;;4.10;85.29;99950.72;4485764;31;20076;-71
2022/01/30 05:40:11;;;;;;;3.10;1.42;;;;;;;4.07;85.53;99958.50;4485762;31;20092;-71
2022/01/30 05:42:40;;;;;;;9.35;4.18;;;;;;;4.12;85.57;99958.53;4485495;31;20108;-71
2022/01/30 05:45:24;;;;;;;4.53;2.87;;;;;;;4.14;85.67;99954.22;4485753;31;20384;-71
2022/01/30 05:47:58;;;;;;;2.80;1.73;;;;;;;4.11;85.77;99962.87;4485878;31;20076;-71
2022/01/30 05:50:27;;;;;;;2.35;1.55;;;;;;;4.14;85.71;99967.25;4485511;31;20092;-71
2022/01/30 05:52:56;;;;;;;4.03;1.30;;;;;;;4.19;85.45;99961.19;4485662;31;20446;-71
2022/01/30 05:55:26;;;;;;;1.87;1.70;;;;;;;4.31;85.27;99966.50;4485844;31;20130;-71
2022/01/30 05:57:54;;;;;;;7.07;1.85;;;;;;;4.38;84.77;99975.25;4485729;31;20091;-71
2022/01/30 06:00:21;;;;;;;1.87;1.12;;;;;;;4.41;84.57;99982.19;4485664;31;20096;-71
2022/01/30 06:02:48;;;;;;;1.87;1.25;;;;;;;4.29;84.98;99978.66;4485463;31;20096;-71
2022/01/30 06:05:18;;;;;;;4.15;2.50;;;;;;;4.26;85.31;99976.03;4485515;31;20117;-71
2022/01/30 06:07:54;;;;;;;2.92;2.00;;;;;;;4.25;85.15;99983.84;4485404;31;20100;-71
2022/01/30 06:10:26;;;;;;;6.03;2.40;;;;;;;4.24;85.08;99977.75;4485195;31;20470;-71
2022/01/30 06:12:54;;;;;;;3.83;2.37;;;;;;;4.31;84.71;99976.94;4485554;31;20096;-71
2022/01/30 06:15:21;;;;;;;5.10;2.00;;;;;;;4.20;85.10;99977.72;4485524;31;20106;-71
2022/01/30 06:17:50;;;;;;;2.33;1.52;;;;;;;4.21;84.94;99961.22;4485243;31;20084;-71
2022/01/30 06:20:26;;;;;;;3.92;2.28;;;;;;;4.17;84.92;99981.19;4485447;31;20468;-71
2022/01/30 06:23:02;;;;;;;2.15;1.65;;;;;;;4.11;85.05;99981.13;4485233;31;20096;-71
2022/01/30 06:25:46;;;;;;;3.85;2.05;;;;;;;4.03;85.29;99990.62;4485078;31;20423;-71
2022/01/30 06:28:23;;;;;;;4.45;2.05;;;;;;;4.10;84.56;99984.63;4485286;31;20155;-71
2022/01/30 06:30:50;;;;;;;3.20;2.20;;;;;;;4.13;84.25;99987.22;4485145;31;20434;-71
2022/01/30 06:33:23;;;;;;;4.32;2.28;;;;;;;4.09;84.34;99988.06;4485165;31;20155;-71
2022/01/30 06:35:58;;;;;;;2.78;1.48;;;;;;;4.16;84.20;99981.16;4484894;31;20142;-71
2022/01/30 06:38:25;;;;;;;2.62;1.75;;;;;;;4.35;83.13;99976.94;4484989;31;20092;-71
2022/01/30 06:40:56;;;;;;;2.85;1.87;;;;;;;4.40;82.90;99981.34;4486324;31;20511;-71
2022/01/30 06:43:32;;;;;;;3.58;3.25;;;;;;;4.48;82.59;99991.81;4486944;31;20449;-71
2022/01/30 06:46:16;;;;;;;2.17;1.92;;;;;;;4.61;81.88;100006.69;4486723;31;20114;-71
2022/01/30 06:48:50;;;;;;;2.28;2.03;;;;;;;4.67;81.80;100009.34;4487025;31;20096;-71
2022/01/30 06:51:23;;;;;;;2.03;1.83;;;;;;;4.78;81.43;100020.72;4486786;31;20135;-71
2022/01/30 06:54:00;;;;;;;1.98;1.55;;;;;;;5.01;80.53;100033.00;4486470;31;20108;-71
2022/01/30 06:56:31;;;;;;;2.95;2.15;;;;;;;5.14;79.58;100053.09;4486693;31;20824;-71
2022/01/30 06:59:05;;;;;;;5.05;1.60;;;;;;;5.17;79.53;100047.91;4486419;31;20144;-71
2022/01/30 07:01:35;;;;;;;1.10;1.00;;;;;;;5.26;78.65;100023.53;4486507;31;20131;-71
2022/01/30 07:04:04;;;;;;;2.53;0.50;;;;;;;5.51;75.69;100035.84;4486825;31;20118;-71
2022/01/30 07:06:32;;;;;;;0.62;0.40;;;;;;;5.82;73.45;99999.28;4486532;31;20183;-71
2022/01/30 07:09:00;;;;;;;1.17;0.80;;;;;;;5.97;72.24;100016.75;4486575;31;20134;-71
2022/01/30 07:11:27;;;;;;;0.73;0.20;;;;;;;6.16;70.53;100002.84;4486777;31;20180;-71
2022/01/30 07:13:54;;;;;;;0.93;0.40;;;;;;;6.26;69.91;99989.78;4486625;31;20096;-71
2022/01/30 07:16:21;;;;;;;2.12;0.40;;;;;;;6.34;68.00;99978.41;4486649;31;20115;-71
2022/01/30 07:18:48;;;;;;;0.30;0.30;;;;;;;6.39;67.74;99994.97;4486591;31;20427;-71
2022/01/30 07:21:16;;;;;;;2.17;0.60;;;;;;;6.42;67.45;99981.00;4486636;31;20161;-71
2022/01/30 07:23:43;;;;;;;0.65;0.40;;;;;;;6.38;67.37;99992.34;4486830;31;20168;-71
2022/01/30 07:26:10;;;;;;;0.98;0.30;;;;;;;6.51;66.67;99991.47;4486504;31;20096;-71
2022/01/30 07:28:38;;;;;;;3.62;0.80;;;;;;;6.66;65.60;99988.81;4486510;31;20114;-71
2022/01/30 07:31:05;;;;;;;1.10;0.57;;;;;;;6.72;65.91;99982.72;4486433;31;20148;-71
2022/01/30 07:33:35;;;;;;;1.62;0.50;;;;;;;6.82;64.78;99980.91;4486448;31;20096;-71
2022/01/30 07:36:02;;;;;;;4.00;1.00;;;;;;;6.86;64.99;99970.44;4486352;31;20092;-71
2022/01/30 07:38:30;;;;;;;1.77;0.80;;;;;;;6.89;64.18;99966.91;4486251;31;20558;-71
2022/01/30 07:40:57;;;;;;;5.03;0.75;;;;;;;7.01;63.00;99969.50;4486346;31;20104;-71
2022/01/30 07:43:24;;;;;;;2.53;0.62;;;;;;;7.08;62.14;99963.37;4486370;31;20155;-71
2022/01/30 07:45:52;;;;;;;4.28;0.98;;;;;;;7.16;60.77;99956.31;4486658;31;20151;-71
2022/01/30 07:48:19;;;;;;;2.87;0.77;;;;;;;7.23;60.10;99972.91;4486376;31;20127;-70
2022/01/30 07:50:46;;;;;;;2.78;1.02;;;;;;;7.37;58.03;99946.63;4486339;31;20096;-70
2022/01/30 07:53:14;;;;;;;0.95;0.55;;;;;;;7.38;57.72;99943.09;4485675;31;20151;-70
2022/01/30 07:55:41;;;;;;;2.60;0.85;;;;;;;7.47;56.47;99956.16;4486363;31;20084;-71
2022/01/30 07:58:10;;;;;;;2.97;0.43;;;;;;;7.56;56.44;99965.72;4486202;31;20475;-71
2022/01/30 08:00:39;;;;;;;6.03;0.40;;;;;;;7.55;55.98;99962.22;4486314;31;20092;-71
2022/01/30 08:03:06;;;;;;;1.27;0.57;;;;;;;7.65;54.89;99955.19;4486135;31;20121;-71
2022/01/30 08:05:34;;;;;;;0.95;0.65;;;;;;;7.69;54.04;99958.66;4486025;31;20072;-71
2022/01/30 08:08:01;;;;;;;4.95;1.05;;;;;;;7.74;53.20;99989.22;4485579;31;20088;-70
2022/01/30 08:10:28;;;;;;;1.62;0.35;;;;;;;7.79;53.79;99978.69;4485805;31;20157;-71
2022/01/30 08:12:55;;;;;;;5.03;1.15;;;;;;;7.78;54.86;99993.56;4486249;31;20138;-70
2022/01/30 08:15:23;;;;;;;0.55;0.35;;;;;;;7.78;55.83;99988.31;4486314;31;20110;-71
2022/01/30 08:17:50;;;;;;;5.93;1.02;;;;;;;7.73;57.63;99986.59;4486106;31;20163;-71
2022/01/30 08:20:18;;;;;;;3.67;1.00;;;;;;;7.72;59.06;100008.47;4486107;31;20088;-71
2022/01/30 08:22:50;;;;;;;0.57;0.30;;;;;;;7.70;60.83;100008.44;4486214;31;20350;-71
2022/01/30 08:25:19;;;;;;;2.33;0.57;;;;;;;7.64;61.65;100046.09;4485983;31;20443;-71
2022/01/30 08:27:47;;;;;;;1.20;0.60;;;;;;;7.50;63.16;100034.81;4486302;31;20392;-71
2022/01/30 08:30:15;;;;;;;0.55;0.40;;;;;;;7.27;64.42;100028.78;4486139;31;20536;-71
2022/01/30 08:32:45;;;;;;;2.70;0.82;;;;;;;7.16;64.80;100024.44;4485969;31;20513;-71
2022/01/30 08:35:15;;;;;;;1.98;0.77;;;;;;;7.21;65.24;100034.03;4485843;31;20462;-71
2022/01/30 08:37:42;;;;;;;4.70;0.70;;;;;;;7.23;65.38;100012.19;4485896;31;20127;-71
2022/01/30 08:40:13;;;;;;;1.42;0.60;;;;;;;7.19;65.65;100027.06;4485969;31;20155;-71
2022/01/30 08:42:41;;;;;;;3.50;0.77;;;;;;;7.26;65.44;100043.63;4486104;31;20185;-71
2022/01/30 08:45:09;;;;;;;4.03;0.60;;;;;;;7.30;64.76;100040.13;4485900;31;20109;-71
2022/01/30 08:47:41;;;;;;;1.48;0.50;;;;;;;7.38;64.49;100058.44;4485895;31;20100;-71
2022/01/30 08:50:09;;;;;;;4.47;1.12;;;;;;;7.44;63.16;100061.03;4485920;31;20108;-71
2022/01/30 08:52:36;;;;;;;8.25;1.00;;;;;;;7.50;63.39;100029.56;4486049;31;20424;-71
2022/01/30 08:55:06;;;;;;;2.42;0.75;;;;;;;7.61;62.04;100038.22;4485934;31;20088;-71
2022/01/30 08:57:34;;;;;;;3.97;0.60;;;;;;;7.72;58.65;100024.19;4485898;31;20441;-71
2022/01/30 09:00:06;;;;;;;6.32;0.60;;;;;;;7.79;59.29;100025.91;4485773;31;20092;-71
2022/01/30 09:02:34;;;;;;;1.02;0.55;;;;;;;7.89;57.57;100025.81;4471262;31;20123;-71
2022/01/30 09:05:01;;;;;;;4.28;0.37;;;;;;;7.96;56.33;100050.28;4485871;31;20096;-71
2022/01/30 09:07:28;;;;;;;4.32;0.90;;;;;;;7.93;54.60;100054.66;4485878;31;20153;-71
2022/01/30 09:09:56;;;;;;;2.00;1.08;;;;;;;8.01;54.99;100043.22;4485759;31;20455;-71
2022/01/30 09:12:24;;;;;;;2.67;1.10;;;;;;;7.99;54.66;100038.88;4485913;31;20092;-71
2022/01/30 09:14:51;;;;;;;9.02;2.53;;;;;;;8.01;54.76;100048.47;4485714;31;20452;-71
2022/01/30 09:17:19;;;;;;;4.25;0.50;;;;;;;8.05;55.14;100065.94;4485745;31;20144;-71
2022/01/30 09:19:47;;;;;;;6.28;2.60;;;;;;;8.12;53.21;100058.88;4485818;31;20100;-71
2022/01/30 09:22:17;;;;;;;1.70;1.12;;;;;;;8.14;53.00;100102.63;4485788;31;20160;-71
2022/01/30 09:24:45;;;;;;;1.42;0.93;;;;;;;8.11;51.90;100093.91;4485694;31;20079;-71
2022/01/30 09:27:13;;;;;;;3.80;0.68;;;;;;;8.18;51.82;100089.47;4485606;31;20448;-71
2022/01/30 09:29:42;;;;;;;9.00;1.52;;;;;;;8.12;52.24;100091.25;4485699;31;20197;-71
2022/01/30 09:32:10;;;;;;;1.75;0.70;;;;;;;8.26;51.90;100058.78;4485639;31;20100;-72
2022/01/30 09:34:37;;;;;;;3.35;1.12;;;;;;;8.31;51.40;100086.75;4485413;31;20173;-71
2022/01/30 09:37:06;;;;;;;2.90;1.33;;;;;;;8.28;50.55;100065.78;4485914;31;20456;-71
2022/01/30 09:39:34;;;;;;;3.90;1.42;;;;;;;8.38;50.73;100074.50;4485521;31;20189;-72
2022/01/30 09:42:02;;;;;;;6.82;2.22;;;;;;;8.59;50.90;100074.31;4485552;31;20440;-71
2022/01/30 09:44:29;;;;;;;4.85;2.17;;;;;;;8.71;50.51;100064.56;4485740;31;20091;-71
2022/01/30 09:46:57;;;;;;;4.40;1.08;;;;;;;8.96;49.72;100076.56;4485529;31;20123;-71
2022/01/30 09:49:28;;;;;;;0.70;0.68;;;;;;;9.04;47.80;100074.72;4485529;31;20096;-71
2022/01/30 09:51:56;;;;;;;5.80;1.50;;;;;;;8.96;47.72;100092.34;4485630;31;20100;-71
2022/01/30 09:54:23;;;;;;;11.77;1.33;;;;;;;8.78;49.47;100071.50;4485554;31;20134;-71
2022/01/30 09:56:50;;;;;;;7.45;1.77;;;;;;;8.13;51.94;100048.41;4485695;31;20123;-71
2022/01/30 09:59:18;;;;;;;4.37;1.33;;;;;;;8.02;53.87;100070.31;4485362;31;20096;-71
2022/01/30 10:01:45;;;;;;;5.85;1.90;;;;;;;7.87;55.41;100061.69;4485499;31;20436;-71
2022/01/30 10:04:13;;;;;;;2.78;0.70;;;;;;;8.00;55.63;100108.84;4485526;31;20084;-71
2022/01/30 10:07:03;;;;;;;4.78;2.17;;;;;;;8.01;54.55;100079.97;4485512;31;20118;-71
2022/01/30 10:09:35;;;;;;;4.47;0.68;;;;;;;8.22;53.92;100080.69;4485281;31;20122;-71
2022/01/30 10:12:15;;;;;;;1.12;0.40;;;;;;;8.61;52.23;100097.94;4485377;31;20536;-71
2022/01/30 10:15:06;;;;;;;4.28;0.55;;;;;;;8.75;52.41;100074.16;4485043;31;20416;-72
2022/01/30 10:17:46;;;;;;;1.70;0.35;;;;;;;9.06;52.08;100090.50;4485384;31;20499;-71
2022/01/30 10:20:38;;;;;;;2.47;0.60;;;;;;;9.19;50.54;100135.94;4485519;31;20108;-72
2022/01/30 10:23:09;;;;;;;1.90;0.43;;;;;;;8.46;51.92;100108.56;4485401;31;20159;-71
2022/01/30 10:25:53;;;;;;;1.73;0.50;;;;;;;6.93;63.35;100191.31;4485241;31;20148;-71
2022/01/30 10:28:32;;;;;;;3.12;0.35;;;;;;;5.60;73.46;100209.22;4485393;31;20112;-71
2022/01/30 10:31:02;;;;;;;1.98;0.47;;;;;;;5.10;72.24;100160.16;4485200;31;20104;-71
2022/01/30 10:33:39;;;;;;;1.00;0.52;;;;;;;4.44;73.91;100133.53;4485572;31;20122;-71
2022/01/30 10:36:10;;;;;;;0.80;0.50;;;;;;;4.61;67.52;100118.91;4485022;31;20153;-71
2022/01/30 10:38:40;;;;;;;1.92;0.50;;;;;;;4.87;68.27;100149.53;4485083;31;20085;-71
2022/01/30 10:41:16;;;;;;;0.37;0.25;;;;;;;5.12;65.81;100150.56;4485038;31;20088;-71
2022/01/30 10:43:57;;;;;;;3.53;1.00;;;;;;;5.36;64.99;100140.28;4485211;31;20090;-71
2022/01/30 10:46:26;;;;;;;3.50;1.00;;;;;;;5.46;63.60;100147.31;4484994;31;20574;-71
2022/01/30 10:48:56;;;;;;;4.97;1.20;;;;;;;5.75;63.19;100155.25;4484934;31;20529;-71
2022/01/30 10:51:24;;;;;;;2.30;0.30;;;;;;;6.02;62.60;100139.72;4484939;31;20093;-71
2022/01/30 10:53:52;;;;;;;4.68;1.08;;;;;;;6.94;58.52;100133.66;4484902;31;20179;-71
2022/01/30 10:56:25;;;;;;;4.72;0.93;;;;;;;6.88;58.21;100125.81;4484956;31;20110;-71
2022/01/30 10:59:15;;;;;;;12.77;1.10;;;;;;;7.02;58.32;100131.03;4484701;31;20087;-71
2022/01/30 11:01:44;;;;;;;5.22;1.42;;;;;;;7.86;53.06;100138.63;4484816;31;20115;-71
2022/01/30 11:04:22;;;;;;;1.05;0.70;;;;;;;8.83;51.06;100119.63;4484605;31;20171;-72
2022/01/30 11:06:49;;;;;;;5.72;1.12;;;;;;;9.30;47.34;100123.56;4484800;31;20119;-72
2022/01/30 11:09:25;;;;;;;4.15;0.98;;;;;;;9.84;46.77;100125.53;4484696;31;20579;-72
2022/01/30 11:11:59;;;;;;;1.55;0.60;;;;;;;10.78;43.90;100131.19;4484829;31;20440;-71
2022/01/30 11:17:09;;;;;;;3.20;1.08;;;;;;;11.77;40.74;100104.69;4484538;31;20139;-72
2022/01/30 11:19:39;;;;;;;5.40;1.00;;;;;;;11.26;40.61;100102.19;4484447;31;20443;-72
2022/01/30 11:22:15;;;;;;;5.68;1.02;;;;;;;10.67;42.35;100086.59;4484427;31;20783;-72
2022/01/30 11:24:47;;;;;;;3.23;1.10;;;;;;;10.39;42.16;100086.16;4484640;31;20119;-71
2022/01/30 11:27:20;;;;;;;2.05;0.60;;;;;;;10.37;41.06;100087.94;4485337;31;20251;-72
2022/01/30 11:29:49;;;;;;;3.50;1.02;;;;;;;10.05;41.25;100081.34;4472321;31;20432;-72
2022/01/30 11:32:19;;;;;;;1.75;0.55;;;;;;;9.41;40.82;100087.47;4486806;31;20092;-72
2022/01/30 11:34:53;;;;;;;8.43;1.50;;;;;;;9.13;41.46;100093.94;4486664;31;20167;-71
2022/01/30 11:37:28;;;;;;;2.37;0.70;;;;;;;8.97;42.46;100072.19;4486763;31;20080;-71
2022/01/30 11:39:56;;;;;;;0.98;0.65;;;;;;;8.86;43.40;100091.56;4486553;31;20505;-72
2022/01/30 11:42:26;;;;;;;7.22;0.55;;;;;;;8.76;44.64;100108.31;4486638;31;20119;-72
2022/01/30 11:44:59;;;;;;;1.65;0.52;;;;;;;8.24;47.10;100086.81;4486661;31;20522;-71
2022/01/30 11:47:55;;;;;;;11.95;0.70;;;;;;;7.80;47.91;100087.94;4486724;31;20116;-74
2022/01/30 11:50:30;;;;;;;4.43;0.80;;;;;;;7.47;49.71;100089.00;4486618;31;20519;-74
2022/01/30 11:53:05;;;;;;;7.95;0.90;;;;;;;7.80;49.96;100094.06;4486422;31;20156;-74
2022/01/30 11:55:56;;;;;;;6.12;1.42;;;;;;;9.43;44.22;100076.94;4486625;31;20116;-72
2022/01/30 11:58:33;;;;;;;1.85;0.70;;;;;;;10.47;41.10;100057.06;4486530;31;20380;-72
2022/01/30 12:01:27;;;;;;;3.07;0.67;;;;;;;11.38;38.37;100043.06;4486581;31;20104;-72
2022/01/30 12:04:02;;;;;;;5.68;1.10;;;;;;;11.55;38.41;100032.12;4476758;31;20100;-72
2022/01/30 12:06:32;;;;;;;2.95;0.90;;;;;;;12.02;36.98;100049.59;4486460;31;20144;-72
2022/01/30 12:09:04;;;;;;;6.68;1.10;;;;;;;11.47;36.40;100063.97;4486579;31;20073;-72
2022/01/30 12:11:34;;;;;;;3.62;0.80;;;;;;;10.56;38.18;100030.53;4486629;31;20102;-71
2022/01/30 12:14:20;;;;;;;3.60;0.93;;;;;;;10.48;38.52;100048.25;4486380;31;20475;-71
2022/01/30 12:16:51;;;;;;;7.43;0.90;;;;;;;10.55;37.55;100020.03;4486452;31;20080;-71
2022/01/30 12:19:30;;;;;;;8.45;0.80;;;;;;;9.91;38.31;100028.06;4486269;31;20080;-71
2022/01/30 12:21:58;;;;;;;6.47;1.73;;;;;;;9.37;39.05;100035.81;4486440;31;20092;-71
2022/01/30 12:24:28;;;;;;;5.93;0.75;;;;;;;8.92;40.09;100040.72;4486331;31;20490;-71
2022/01/30 12:27:02;;;;;;;0.77;0.47;;;;;;;9.20;40.17;100022.00;4486019;31;20429;-71
2022/01/30 12:29:42;;;;;;;3.10;1.05;;;;;;;10.24;37.84;100028.41;4486102;31;20114;-71
2022/01/30 12:34:54;;;;;;;8.30;1.05;;;;;;;9.31;39.63;100067.44;4485913;31;20092;-71
2022/01/30 12:37:27;;;;;;;2.20;0.60;;;;;;;10.00;38.20;100042.81;4485816;31;20140;-71
2022/01/30 12:39:56;;;;;;;3.17;0.85;;;;;;;9.55;38.96;100068.91;4485960;31;20125;-71
2022/01/30 12:42:25;;;;;;;5.78;1.10;;;;;;;9.03;41.06;100064.25;4485927;31;20411;-71
2022/01/30 12:44:59;;;;;;;0.98;0.50;;;;;;;9.76;40.15;100046.72;4485897;31;20160;-71
2022/01/30 12:47:27;;;;;;;2.90;0.70;;;;;;;9.55;39.49;100043.47;4485977;31;20404;-71